Portada
METAR-TAF:

METAR-TAF

Aeroports :

Karachi, Uzbekistan

latitud: 38-48-12N, longitud: 065-46-24E, altitud: 375 m

Observació

L'informe es va fer fa 33 minuts, a les 09:00 UTC
Vent 2 kt amb direcció variable
Temperatura 16°C
Humitat 39%
Pressió 1024 hPa
Visibilitat 10 km o més
sense núvols per sota de 1500 mi sense presència de cumulonimbus.

METAR: UTSK 120900Z VRB02KT CAVOK 16/02 Q1024 R16/CLRD70

Hora: 14:33 (09:33 UTC)

Pronòstic

L'informe es va fer fa 3 hores i 30 minuts, a les 06:03 UTC
Pronòstic vàlid del 12 a les 07 UTC al 12 a les 16 UTC
Vent 10 kt del Sud-Est
Visibilitat 10 km o més
sense núvols per sota de 1500 mi sense presència de cumulonimbus.
Temporalment
l' 12 a les 07 UTC al 12 a les 16 UTC
Vent 10 kt del Nord amb ràfegues de 20 kt

TAF: UTSK 120603Z 1207/1216 14010KT CAVOK TEMPO 1207/1216 36010G20KT

Observacions i pronòstics meteorològics de més de 4000 aeroports (METAR i TAF).

Les estacions disponibles són els punts grocs i vermells al mapa.

Posi el ratolí al punt desitjat per veure el nom de l'estació.

Feu clic per veure les observacions i els pronòstics meteorològics.

Per canviar el mapa: feu clic els botons verds amb una creu de color negre per apropar; al botó verd amb un guió per allunyar la imatge; o en les fletxes verdes per a mapes adjacents.


METAR-TAF: